Aviation Digital Data Service (ADDS)

Output produced by METARs form (0825 UTC 26 July 2016)
found at http://aviationweather.gov/adds/metars/
 
KMPV 260521Z 2606/2706 24006KT P6SM BKN050 
     FM261000 VRB03KT P6SM SCT050 
     FM261500 29008KT P6SM BKN040 
     FM270000 VRB03KT P6SM FEW040